createdAt,value
2023-08-31T00:02:05.338Z,99.99
2023-08-31T00:07:05.301Z,99.99
2023-08-31T00:12:05.232Z,99.99
2023-08-31T00:17:05.173Z,99.99
2023-08-31T00:22:05.130Z,99.99
2023-08-31T00:27:05.110Z,99.99
2023-08-31T00:32:05.000Z,99.99
2023-08-31T00:37:04.912Z,99.77
2023-08-31T00:42:04.842Z,99.99
2023-08-31T00:47:04.775Z,99.99
2023-08-31T00:52:04.697Z,99.99
2023-08-31T00:57:04.673Z,99.99
2023-08-31T01:02:04.634Z,99.99
2023-08-31T01:07:04.509Z,99.99
2023-08-31T01:12:04.436Z,99.99
2023-08-31T01:17:04.377Z,99.99
2023-08-31T01:22:04.308Z,99.99
2023-08-31T01:27:04.253Z,99.99
2023-08-31T01:32:04.305Z,99.99
2023-08-31T01:37:04.123Z,99.99
2023-08-31T01:42:04.080Z,99.99
2023-08-31T01:47:03.995Z,99.99
2023-08-31T01:52:03.924Z,99.99
2023-08-31T01:57:03.870Z,99.99
2023-08-31T02:02:03.814Z,99.99
2023-08-31T02:07:03.758Z,99.99
2023-08-31T02:12:03.672Z,99.99
2023-08-31T02:17:03.598Z,99.99
2023-08-31T02:22:03.528Z,99.99
2023-08-31T02:27:03.465Z,99.99
2023-08-31T02:32:03.441Z,99.99
2023-08-31T02:37:03.341Z,99.97
2023-08-31T02:42:03.281Z,99.99
2023-08-31T02:47:03.208Z,99.99
2023-08-31T02:52:03.149Z,99.99
2023-08-31T02:57:03.039Z,99.99
2023-08-31T03:02:03.036Z,99.99
2023-08-31T03:07:02.914Z,99.91
2023-08-31T03:12:02.882Z,99.99
2023-08-31T03:17:02.778Z,99.99
2023-08-31T03:22:02.754Z,99.99
2023-08-31T03:27:02.660Z,99.96
2023-08-31T03:32:02.613Z,99.99
2023-08-31T03:37:02.524Z,99.99
2023-08-31T03:42:02.483Z,99.99
2023-08-31T03:47:02.399Z,99.99
2023-08-31T03:52:02.352Z,99.99
2023-08-31T03:57:02.275Z,99.99
2023-08-31T04:02:02.213Z,99.75
2023-08-31T04:07:02.143Z,99.99
2023-08-31T04:12:02.053Z,99.99
2023-08-31T04:17:02.037Z,99.99
2023-08-31T04:22:01.934Z,99.99
2023-08-31T04:27:01.883Z,99.99
2023-08-31T04:32:01.800Z,99.99
2023-08-31T04:37:01.750Z,99.99
2023-08-31T04:42:02.968Z,99.99
2023-08-31T04:47:01.600Z,99.99
2023-08-31T04:52:01.538Z,99.99
2023-08-31T04:57:01.492Z,99.99
2023-08-31T05:02:01.419Z,99.99
2023-08-31T05:07:01.411Z,99.99
2023-08-31T05:12:01.286Z,99.99
2023-08-31T05:17:01.232Z,99.99
2023-08-31T05:22:01.135Z,99.19
2023-08-31T05:27:01.080Z,98.38
2023-08-31T05:32:00.980Z,98.38
2023-08-31T05:37:00.945Z,97.97
2023-08-31T05:42:01.171Z,98.48
2023-08-31T05:47:00.854Z,97.77
2023-08-31T05:52:00.724Z,97.82
2023-08-31T05:57:00.704Z,97.00
2023-08-31T06:02:00.622Z,97.21
2023-08-31T06:07:00.574Z,97.37
2023-08-31T06:12:00.476Z,96.92
2023-08-31T06:17:00.404Z,96.10
2023-08-31T06:22:00.354Z,95.54
2023-08-31T06:27:00.282Z,94.04
2023-08-31T06:32:00.366Z,93.28
2023-08-31T06:37:00.176Z,92.89
2023-08-31T06:42:00.144Z,91.26
2023-08-31T06:47:00.144Z,90.05
2023-08-31T06:51:59.940Z,90.25
2023-08-31T06:56:59.875Z,91.22
2023-08-31T07:01:59.820Z,90.14
2023-08-31T07:06:59.822Z,91.56
2023-08-31T07:11:59.684Z,90.61
2023-08-31T07:16:59.655Z,88.95
2023-08-31T07:21:59.525Z,89.01
2023-08-31T07:26:59.522Z,85.11
2023-08-31T07:31:59.418Z,82.69
2023-08-31T07:36:59.402Z,82.49
2023-08-31T07:41:59.295Z,82.87
2023-08-31T07:46:59.272Z,85.27
2023-08-31T07:51:59.165Z,85.60
2023-08-31T07:56:59.135Z,78.66
2023-08-31T08:01:59.123Z,78.84
2023-08-31T08:06:58.968Z,77.38
2023-08-31T08:11:58.903Z,78.23
2023-08-31T08:16:59.176Z,79.74
2023-08-31T08:21:58.779Z,80.19
2023-08-31T08:26:58.715Z,80.35
2023-08-31T08:31:58.638Z,72.71
2023-08-31T08:36:58.560Z,67.29
2023-08-31T08:41:58.498Z,73.18
2023-08-31T08:46:58.432Z,75.74
2023-08-31T08:51:58.363Z,71.90
2023-08-31T08:56:58.644Z,68.19
2023-08-31T09:01:58.273Z,71.60
2023-08-31T09:06:58.170Z,74.86
2023-08-31T09:11:58.105Z,73.82
2023-08-31T09:16:58.143Z,72.44
2023-08-31T09:21:57.979Z,68.42
2023-08-31T09:26:57.896Z,62.29
2023-08-31T09:31:57.867Z,63.62
2023-08-31T09:36:57.787Z,59.06
2023-08-31T09:41:57.701Z,55.55
2023-08-31T09:46:57.630Z,53.78
2023-08-31T09:51:57.573Z,53.11
2023-08-31T09:56:57.642Z,59.70
2023-08-31T10:01:57.596Z,63.89
2023-08-31T10:06:57.377Z,65.82
2023-08-31T10:11:57.511Z,67.94
2023-08-31T10:16:57.273Z,70.53
2023-08-31T10:21:57.512Z,70.19
2023-08-31T10:26:57.338Z,69.69
2023-08-31T10:31:57.609Z,68.85
2023-08-31T10:37:08.455Z,65.57
2023-08-31T10:41:58.542Z,62.81
2023-08-31T10:46:57.017Z,58.94
2023-08-31T10:51:57.008Z,60.95
2023-08-31T10:56:57.155Z,58.51
2023-08-31T11:01:56.824Z,59.45
2023-08-31T11:06:56.787Z,61.84
2023-08-31T11:11:56.761Z,64.97
2023-08-31T11:16:56.672Z,67.61
2023-08-31T11:21:56.459Z,66.71
2023-08-31T11:26:56.527Z,64.04
2023-08-31T11:31:56.899Z,59.81
2023-08-31T11:36:56.458Z,56.77
2023-08-31T11:41:56.394Z,57.20
2023-08-31T11:46:56.255Z,58.45
2023-08-31T11:51:56.068Z,56.62
2023-08-31T11:56:55.908Z,57.35
2023-08-31T12:01:55.937Z,60.77
2023-08-31T12:06:55.792Z,60.12
2023-08-31T12:11:55.743Z,61.76
2023-08-31T12:16:55.653Z,62.49
2023-08-31T12:21:55.615Z,63.56
2023-08-31T12:26:55.523Z,62.26
2023-08-31T12:31:55.545Z,60.21
2023-08-31T12:36:55.395Z,58.07
2023-08-31T12:42:00.585Z,59.94
2023-08-31T12:46:56.267Z,60.66
2023-08-31T12:51:55.263Z,61.17
2023-08-31T12:56:55.146Z,58.63
2023-08-31T13:01:55.144Z,57.07
2023-08-31T13:06:55.037Z,57.04
2023-08-31T13:11:54.948Z,56.91
2023-08-31T13:16:54.877Z,55.74
2023-08-31T13:21:54.811Z,56.48
2023-08-31T13:26:54.705Z,57.87
2023-08-31T13:31:54.688Z,57.00
2023-08-31T13:36:54.602Z,57.70
2023-08-31T13:41:54.528Z,57.48
2023-08-31T13:46:54.469Z,57.00
2023-08-31T13:51:54.410Z,58.26
2023-08-31T13:56:54.339Z,56.60
2023-08-31T14:01:54.330Z,55.40
2023-08-31T14:06:54.197Z,55.20
2023-08-31T14:11:54.176Z,56.05
2023-08-31T14:16:54.066Z,54.35
2023-08-31T14:21:54.071Z,54.27
2023-08-31T14:26:53.948Z,55.35
2023-08-31T14:31:53.913Z,54.62
2023-08-31T14:36:53.801Z,55.02
2023-08-31T14:41:53.775Z,55.45
2023-08-31T14:46:53.685Z,54.80
2023-08-31T14:51:53.682Z,54.30
2023-08-31T14:56:53.543Z,54.70
2023-08-31T15:01:53.484Z,54.60
2023-08-31T15:06:53.471Z,55.60
2023-08-31T15:11:53.378Z,55.87
2023-08-31T15:16:53.276Z,54.39
2023-08-31T15:21:53.256Z,55.43
2023-08-31T15:26:53.140Z,55.95
2023-08-31T15:31:53.093Z,54.32
2023-08-31T15:36:53.016Z,55.22
2023-08-31T15:41:52.961Z,54.52
2023-08-31T15:46:52.898Z,55.58
2023-08-31T15:51:52.864Z,56.38
2023-08-31T15:56:52.830Z,56.45
2023-08-31T16:01:52.731Z,57.48
2023-08-31T16:06:52.629Z,58.22
2023-08-31T16:11:52.570Z,58.11
2023-08-31T16:16:52.559Z,60.12
2023-08-31T16:21:52.466Z,60.25
2023-08-31T16:26:53.062Z,61.43
2023-08-31T16:31:52.320Z,61.25
2023-08-31T16:36:52.337Z,60.38
2023-08-31T16:41:52.353Z,61.31
2023-08-31T16:46:52.096Z,61.71
2023-08-31T16:51:52.060Z,61.51
2023-08-31T16:56:51.983Z,62.55
2023-08-31T17:01:51.951Z,62.95
2023-08-31T17:06:51.857Z,62.95
2023-08-31T17:11:51.782Z,62.95
2023-08-31T17:16:51.682Z,64.26
2023-08-31T17:21:51.646Z,64.59
2023-08-31T17:26:51.594Z,63.39
2023-08-31T17:31:51.516Z,64.39
2023-08-31T17:36:51.422Z,64.52
2023-08-31T17:41:51.386Z,64.02
2023-08-31T17:46:51.307Z,64.86
2023-08-31T17:51:51.220Z,67.07
2023-08-31T17:56:51.181Z,67.57
2023-08-31T18:01:51.112Z,68.91
2023-08-31T18:06:51.009Z,68.21
2023-08-31T18:11:51.016Z,68.74
2023-08-31T18:16:51.011Z,66.53
2023-08-31T18:21:50.884Z,65.75
2023-08-31T18:26:50.765Z,66.56
2023-08-31T18:31:50.702Z,67.07
2023-08-31T18:36:50.633Z,67.19
2023-08-31T18:41:50.579Z,68.21
2023-08-31T18:46:50.517Z,68.01
2023-08-31T18:51:50.448Z,68.10
2023-08-31T18:56:50.364Z,68.74
2023-08-31T19:01:51.303Z,69.04
2023-08-31T19:06:50.232Z,69.65
2023-08-31T19:11:50.189Z,70.46
2023-08-31T19:16:50.097Z,71.77
2023-08-31T19:21:50.070Z,72.11
2023-08-31T19:26:49.992Z,72.81
2023-08-31T19:31:49.949Z,73.86
2023-08-31T19:36:49.829Z,74.57
2023-08-31T19:41:49.808Z,75.07
2023-08-31T19:46:53.306Z,75.37
2023-08-31T19:51:50.666Z,76.18
2023-08-31T19:56:49.607Z,76.93
2023-08-31T20:01:49.594Z,77.84
2023-08-31T20:06:49.596Z,78.75
2023-08-31T20:11:49.383Z,79.25
2023-08-31T20:16:49.409Z,79.86
2023-08-31T20:21:49.262Z,80.87
2023-08-31T20:26:49.193Z,81.92
2023-08-31T20:31:49.188Z,83.23
2023-08-31T20:36:49.029Z,83.44
2023-08-31T20:41:49.002Z,84.28
2023-08-31T20:46:48.922Z,84.69
2023-08-31T20:51:49.659Z,84.99
2023-08-31T20:56:49.166Z,85.10
2023-08-31T21:01:48.880Z,85.10
2023-08-31T21:06:49.038Z,85.84
2023-08-31T21:11:48.609Z,86.35
2023-08-31T21:16:48.546Z,86.55
2023-08-31T21:21:48.438Z,86.76
2023-08-31T21:26:48.380Z,87.16
2023-08-31T21:31:48.339Z,87.77
2023-08-31T21:36:48.211Z,90.30
2023-08-31T21:41:48.196Z,92.87
2023-08-31T21:46:48.149Z,94.29
2023-08-31T21:51:48.055Z,95.45
2023-08-31T21:56:48.010Z,95.95
2023-08-31T22:01:47.991Z,96.06
2023-08-31T22:06:47.826Z,97.07
2023-08-31T22:11:47.806Z,97.07
2023-08-31T22:16:47.732Z,97.58
2023-08-31T22:21:47.662Z,97.88
2023-08-31T22:26:47.589Z,97.67
2023-08-31T22:31:47.597Z,96.87
2023-08-31T22:36:47.449Z,97.07
2023-08-31T22:41:47.401Z,96.66
2023-08-31T22:46:47.318Z,96.06
2023-08-31T22:51:47.248Z,95.55
2023-08-31T22:56:47.197Z,95.30
2023-08-31T23:01:47.156Z,94.54
2023-08-31T23:06:47.049Z,94.43
2023-08-31T23:11:47.047Z,94.23
2023-08-31T23:16:46.914Z,95.04
2023-08-31T23:21:46.852Z,94.74
2023-08-31T23:26:46.786Z,95.14
2023-08-31T23:31:46.755Z,95.35
2023-08-31T23:36:46.698Z,94.34
2023-08-31T23:41:46.594Z,94.34
2023-08-31T23:46:46.563Z,94.59
2023-08-31T23:51:46.478Z,94.79
2023-08-31T23:56:46.595Z,96.01
